Buena Vista, CO

1:17 AM MST on February 06, 2016 (GMT -0700)
Kettering Residence | | Change Station
CLOSE
Current Station
Personal Weather Station
Location: Buena Vista, CO
Elevation: 8035 ft
Nearby Weather Stations

Elev 8035 ft 38.84 °N, 106.15 °W | Updated 6 seconds ago

Clear
Clear
4.6 °F
Feels Like 5 °F
N
0.9
Wind Variable Wind from SSE
Gusts 2.5 mph

Today
High -- | Low -- °F
--% Chance of Precip.
Yesterday
High -- | Low -- °F
Precip. -- in
Pressure 30.34 in
Visibility 10.0 miles
Clouds Clear
Windchill 5 °F
Dew Point -10 °F
Humidity 50%
Rainfall 0.00 in
Snow Depth Not available.
7:06 AM 5:31 PM
Waning Crescent, 7% visible
METAR KAEJ 060815Z AUTO 29006KT 10SM CLR M14/M20 A3034 RMK AO2 T11451205
Pressure 30.34 in
Visibility 10.0 miles
Clouds Clear
Windchill 5 °F
Dew Point -10 °F
Humidity 50%
Rainfall 0.00 in
Snow Depth Not available.
7:06 AM 5:31 PM
Waning Crescent, 7% visible
METAR KAEJ 060815Z AUTO 29006KT 10SM CLR M14/M20 A3034 RMK AO2 T11451205

10-Day Weather Forecast

Almanac

Astronomy

Feb. 06, 2016 Rise Set
Actual Time
Civil Twilight
Nautical Twilight
Astronomical Twilight
Moon
Length of Visible Light
Length of Day
Tomorrow will be .
, % of the Moon is Illuminated

Today's Extremes

State Highs State Lows

Community

WunderPhotos

Upload Photos

1,890,933 photos uploaded!

WunderBlog® & News

Nearby

Air Quality

  Air Quality AQ Index Pollutant
Not available.

Snow Depth

Station Depth Elevation

Earthquake Activity

City Distance Mag. Time & Date
Minimum magnitude displayed is 2.5.

Coastal Water Temperatures

Place Temperature

Stations

Nearby Weather Stations

Station Location Temp. Windchill Dew Point Humidity Wind Precip. Elev Updated Type
                   

Watches & Warnings

There are currently no watches in effect.